Time;durP1;ratioP1;P1;durP2;ratioP2;P2;SDS_P1;SDS_P2;PMS_P1;PMS_P2;Temp;Humidity;BMP_temperature;BMP_pressure;BME280_temperature;BME280_humidity;BME280_pressure;Samples;Min_cycle;Max_cycle;Signal;HPM_P1;HPM_P2
2022/03/27 00:01:32;;;;;;;44.08;19.20;;;;;;;-2.82;68.66;98435.50;6225287;22;20020;-79
2022/03/27 00:03:58;;;;;;;36.70;16.40;;;;;;;-2.79;68.75;98432.72;6277777;22;20106;-79
2022/03/27 00:06:24;;;;;;;28.35;14.38;;;;;;;-2.79;68.79;98421.41;6250617;22;20389;-79
2022/03/27 00:08:50;;;;;;;25.73;12.30;;;;;;;-2.80;68.96;98430.19;6200341;22;20043;-78
2022/03/27 00:11:27;;;;;;;26.00;13.90;;;;;;;-2.70;69.19;98447.22;6225387;22;20348;-79
2022/03/27 00:14:04;;;;;;;23.98;13.75;;;;;;;-2.71;68.97;98446.38;6200383;22;20019;-80
2022/03/27 00:16:31;;;;;;;22.88;13.10;;;;;;;-2.67;68.94;98447.09;6200645;22;20023;-79
2022/03/27 00:18:57;;;;;;;34.55;13.70;;;;;;;-2.67;69.48;98441.00;6250857;22;20023;-78
2022/03/27 00:21:23;;;;;;;29.23;15.45;;;;;;;-2.69;69.72;98428.84;6277084;22;20015;-78
2022/03/27 00:23:50;;;;;;;29.38;15.98;;;;;;;-2.64;69.45;98427.78;6225302;22;20026;-79
2022/03/27 00:26:17;;;;;;;39.13;16.35;;;;;;;-2.73;69.97;98419.41;6277480;22;20015;-79
2022/03/27 00:28:43;;;;;;;34.80;15.77;;;;;;;-2.67;69.76;98412.22;6224923;22;20019;-78
2022/03/27 00:31:11;;;;;;;38.97;18.98;;;;;;;-2.68;69.77;98395.66;6225373;22;20050;-80
2022/03/27 00:33:38;;;;;;;40.35;17.17;;;;;;;-2.82;70.06;98411.06;6277103;22;20042;-80
2022/03/27 00:36:06;;;;;;;33.63;15.88;;;;;;;-2.73;70.32;98411.56;6250101;22;20023;-78
2022/03/27 00:38:35;;;;;;;27.85;14.45;;;;;;;-2.79;70.21;98396.13;6277521;22;20024;-78
2022/03/27 00:41:01;;;;;;;33.28;15.60;;;;;;;-2.80;70.41;98394.41;6224971;22;20467;-78
2022/03/27 00:43:28;;;;;;;32.78;13.88;;;;;;;-2.77;70.32;98377.75;6267872;22;20024;-80
2022/03/27 00:45:54;;;;;;;27.98;14.45;;;;;;;-2.76;70.51;98382.91;6250288;22;20024;-79
2022/03/27 00:48:21;;;;;;;24.25;11.77;;;;;;;-2.66;69.86;98390.41;6276796;22;20020;-79
2022/03/27 00:50:49;;;;;;;18.40;11.55;;;;;;;-2.63;69.69;98385.88;6275687;22;20019;-79
2022/03/27 00:53:16;;;;;;;18.10;10.40;;;;;;;-2.60;69.39;98358.72;6225099;22;20395;-79
2022/03/27 00:55:44;;;;;;;16.40;8.50;;;;;;;-2.60;69.33;98366.56;6250486;22;20106;-81
2022/03/27 00:58:12;;;;;;;22.77;10.90;;;;;;;-2.60;69.20;98374.41;6277873;22;20019;-80
2022/03/27 01:00:38;;;;;;;14.35;9.07;;;;;;;-2.72;69.49;98355.72;6277416;22;20019;-76
2022/03/27 01:03:14;;;;;;;21.38;10.52;;;;;;;-2.78;69.82;98368.22;6280703;22;20033;-78
2022/03/27 01:05:41;;;;;;;19.13;9.32;;;;;;;-2.78;69.74;98371.69;6254414;22;20023;-78
2022/03/27 01:08:10;;;;;;;26.77;11.77;;;;;;;-2.77;69.70;98365.53;6303940;22;20443;-80
2022/03/27 01:10:37;;;;;;;24.40;11.65;;;;;;;-2.72;70.27;98360.09;6275816;22;20013;-78
2022/03/27 01:13:14;;;;;;;24.77;12.30;;;;;;;-2.66;69.72;98365.09;6224855;22;20073;-80
2022/03/27 01:15:42;;;;;;;23.15;10.85;;;;;;;-2.71;69.89;98352.22;6225004;22;20019;-80
2022/03/27 01:18:08;;;;;;;29.15;12.65;;;;;;;-2.76;70.64;98338.44;6250053;22;20031;-79
2022/03/27 01:20:38;;;;;;;19.60;11.32;;;;;;;-2.66;70.32;98338.94;6275552;22;20348;-78
2022/03/27 01:23:11;;;;;;;22.98;11.63;;;;;;;-2.64;70.41;98336.22;6224695;22;20357;-78
2022/03/27 01:25:38;;;;;;;27.92;11.65;;;;;;;-2.73;70.61;98333.09;6249981;22;20023;-78
2022/03/27 01:28:05;;;;;;;20.83;10.05;;;;;;;-2.84;71.47;98331.84;6249464;22;20069;-79
2022/03/27 01:30:32;;;;;;;26.52;13.65;;;;;;;-2.84;71.54;98319.63;6224673;22;20043;-80
2022/03/27 01:32:58;;;;;;;26.85;14.88;;;;;;;-2.77;71.36;98315.84;6276873;22;20086;-79
2022/03/27 01:35:24;;;;;;;25.95;13.30;;;;;;;-2.75;71.47;98318.38;6276851;22;20047;-79
2022/03/27 01:37:50;;;;;;;28.65;14.95;;;;;;;-2.75;71.41;98329.69;6276795;22;20023;-80
2022/03/27 01:40:17;;;;;;;25.02;12.95;;;;;;;-2.67;71.59;98328.50;6249920;22;20061;-78
2022/03/27 01:42:44;;;;;;;22.27;12.90;;;;;;;-2.76;71.64;98324.53;6277062;22;20031;-78
2022/03/27 01:45:11;;;;;;;30.98;14.95;;;;;;;-2.76;71.80;98311.44;6249799;22;20149;-79
2022/03/27 01:47:38;;;;;;;29.40;15.13;;;;;;;-2.69;71.91;98316.34;6224216;22;20070;-80
2022/03/27 01:50:06;;;;;;;30.63;15.10;;;;;;;-2.73;71.90;98322.63;6249431;22;20026;-78
2022/03/27 01:52:33;;;;;;;27.75;14.75;;;;;;;-2.69;72.34;98333.81;6276530;22;20363;-78
2022/03/27 01:54:59;;;;;;;34.35;15.45;;;;;;;-2.72;71.91;98313.88;6224462;22;20043;-78
2022/03/27 01:57:25;;;;;;;28.48;15.77;;;;;;;-2.64;71.77;98324.00;6276615;22;20466;-78
2022/03/27 01:59:50;;;;;;;31.92;13.70;;;;;;;-2.78;72.08;98316.75;6224311;22;20149;-77
2022/03/27 02:02:24;;;;;;;33.55;16.42;;;;;;;-2.74;72.26;98315.72;6249549;22;20058;-77
2022/03/27 02:04:51;;;;;;;43.03;17.63;;;;;;;-2.59;71.94;98302.91;6276779;22;20070;-78
2022/03/27 02:07:18;;;;;;;32.60;16.90;;;;;;;-2.57;71.54;98308.91;6199465;22;20023;-78
2022/03/27 02:09:45;;;;;;;32.08;15.40;;;;;;;-2.60;71.91;98330.78;6224346;22;20020;-78
2022/03/27 02:12:11;;;;;;;34.63;15.75;;;;;;;-2.55;71.79;98312.31;6249702;22;20042;-79
2022/03/27 02:14:37;;;;;;;38.85;17.83;;;;;;;-2.63;72.54;98319.59;6249528;22;20023;-79
2022/03/27 02:17:03;;;;;;;26.75;10.38;;;;;;;-2.65;72.56;98309.22;6249546;22;20110;-79
2022/03/27 02:19:29;;;;;;;27.20;13.45;;;;;;;-2.58;72.30;98312.44;6276823;22;20022;-79
2022/03/27 02:21:55;;;;;;;26.75;13.40;;;;;;;-2.62;72.38;98297.78;6249188;22;20020;-79
2022/03/27 02:24:21;;;;;;;17.73;9.75;;;;;;;-2.66;72.71;98294.47;6249520;22;20361;-78
2022/03/27 02:26:49;;;;;;;26.17;13.43;;;;;;;-2.59;72.77;98288.03;6249711;22;20019;-79
2022/03/27 02:29:16;;;;;;;36.13;15.32;;;;;;;-2.47;72.58;98302.34;6224201;22;20019;-79
2022/03/27 02:31:43;;;;;;;28.58;14.95;;;;;;;-2.43;72.41;98298.69;6199667;22;20019;-78
2022/03/27 02:34:10;;;;;;;31.90;15.27;;;;;;;-2.30;72.04;98289.34;6287815;22;20443;-78
2022/03/27 02:36:36;;;;;;;26.25;14.32;;;;;;;-2.26;71.74;98285.69;6235985;22;20030;-79
2022/03/27 02:39:03;;;;;;;37.88;15.65;;;;;;;-2.34;71.90;98274.69;6235167;22;20095;-78
2022/03/27 02:41:28;;;;;;;34.67;15.52;;;;;;;-2.36;71.59;98273.94;6280679;22;20028;-79
2022/03/27 02:43:55;;;;;;;30.85;15.57;;;;;;;-2.26;71.80;98259.53;6273123;22;20065;-79
2022/03/27 02:46:21;;;;;;;33.85;14.25;;;;;;;-2.22;71.66;98261.09;6275477;22;20019;-80
2022/03/27 02:48:46;;;;;;;28.35;14.90;;;;;;;-2.12;71.53;98252.78;6249283;22;20050;-79
2022/03/27 02:51:12;;;;;;;21.10;11.85;;;;;;;-2.02;71.03;98256.69;6275147;22;20012;-78
2022/03/27 02:53:38;;;;;;;28.52;14.65;;;;;;;-2.10;71.20;98258.81;6249471;22;20105;-79
2022/03/27 02:56:06;;;;;;;28.48;14.80;;;;;;;-2.08;70.84;98243.88;6224380;22;20046;-78
2022/03/27 02:58:32;;;;;;;27.05;12.95;;;;;;;-2.17;70.93;98231.22;6249402;22;20019;-81
2022/03/27 03:00:58;;;;;;;19.70;11.77;;;;;;;-2.06;70.72;98247.28;6249499;22;20019;-80
2022/03/27 03:03:24;;;;;;;31.05;12.73;;;;;;;-2.03;70.14;98239.25;6224726;22;20085;-79
2022/03/27 03:05:51;;;;;;;31.55;15.10;;;;;;;-1.98;70.17;98239.91;6275937;22;20440;-78
2022/03/27 03:08:18;;;;;;;25.52;11.73;;;;;;;-1.96;70.32;98235.44;6275406;22;20083;-79
2022/03/27 03:10:44;;;;;;;27.00;14.18;;;;;;;-1.87;69.97;98250.72;6277223;22;20027;-78
2022/03/27 03:13:11;;;;;;;29.13;12.88;;;;;;;-1.78;69.46;98228.47;6275487;22;20053;-77
2022/03/27 03:15:39;;;;;;;24.42;14.23;;;;;;;-1.61;69.33;98209.34;6223912;22;20738;-78
2022/03/27 03:18:05;;;;;;;24.20;12.63;;;;;;;-1.64;68.78;98240.94;6248824;22;20016;-77
2022/03/27 03:20:32;;;;;;;19.10;10.95;;;;;;;-1.18;71.35;98233.41;6276134;22;20422;-83
2022/03/27 03:22:59;;;;;;;33.03;15.30;;;;;;;-1.02;68.40;98224.69;6275032;22;20027;-78
2022/03/27 03:25:25;;;;;;;25.65;12.65;;;;;;;-1.10;67.29;98223.38;6249165;22;20058;-79
2022/03/27 03:27:51;;;;;;;33.40;16.35;;;;;;;-1.08;67.27;98214.53;6249018;22;20089;-78
2022/03/27 03:30:17;;;;;;;24.48;14.75;;;;;;;-1.12;67.02;98207.75;6276317;22;20102;-80
2022/03/27 03:32:43;;;;;;;33.80;16.48;;;;;;;-0.95;66.84;98219.97;6274869;22;20024;-76
2022/03/27 03:35:10;;;;;;;26.00;14.73;;;;;;;-0.94;66.03;98200.72;6223555;22;20015;-80
2022/03/27 03:37:37;;;;;;;30.48;15.00;;;;;;;-1.01;65.26;98209.81;6275302;22;20030;-82
2022/03/27 03:40:07;;;;;;;27.90;15.70;;;;;;;-0.98;65.25;98188.66;6250126;22;20018;-79
2022/03/27 03:42:34;;;;;;;25.85;15.18;;;;;;;-1.05;65.41;98203.03;6274556;22;20065;-80
2022/03/27 03:45:00;;;;;;;25.45;12.75;;;;;;;-1.10;64.52;98194.53;6249401;22;20015;-79
2022/03/27 03:47:25;;;;;;;28.35;16.52;;;;;;;-1.02;64.79;98201.06;6248997;22;20882;-77
2022/03/27 03:49:52;;;;;;;32.97;15.88;;;;;;;-0.82;64.97;98197.44;6274121;22;20356;-79
2022/03/27 03:52:17;;;;;;;30.38;15.35;;;;;;;-0.81;64.15;98188.63;6223515;22;20023;-82
2022/03/27 03:54:44;;;;;;;27.10;14.93;;;;;;;-0.81;63.82;98186.00;6250223;22;20440;-80
2022/03/27 03:57:10;;;;;;;33.97;15.60;;;;;;;-0.74;63.59;98191.78;6277456;22;20019;-80
2022/03/27 03:59:36;;;;;;;27.67;15.77;;;;;;;-0.68;63.63;98195.84;6225460;22;20470;-81
2022/03/27 04:02:06;;;;;;;32.80;15.65;;;;;;;-0.56;63.19;98184.72;6249327;22;20502;-79
2022/03/27 04:04:32;;;;;;;;;;;;;;;-0.58;62.78;98171.66;6276261;22;20030;-78
2022/03/27 04:06:59;;;;;;;30.70;14.73;;;;;;;-0.76;63.19;98168.22;6275889;22;20035;-81
2022/03/27 04:09:26;;;;;;;31.52;15.65;;;;;;;-0.54;62.73;98172.34;6250715;22;20435;-79
2022/03/27 04:11:53;;;;;;;27.55;15.68;;;;;;;-0.54;62.58;98170.56;6250547;22;20019;-81
2022/03/27 04:14:19;;;;;;;28.70;15.70;;;;;;;-0.49;62.29;98162.44;6275938;22;20028;-79
2022/03/27 04:16:45;;;;;;;33.88;16.98;;;;;;;-0.43;62.48;98179.66;6249981;22;20473;-83
2022/03/27 04:19:12;;;;;;;38.05;13.38;;;;;;;-0.52;62.29;98171.34;6277129;22;20020;-84
2022/03/27 04:21:39;;;;;;;14.10;9.25;;;;;;;-0.84;62.94;98170.41;6225218;22;20528;-80
2022/03/27 04:24:06;;;;;;;35.42;14.07;;;;;;;-0.85;63.42;98173.97;6276658;22;20050;-82
2022/03/27 04:26:33;;;;;;;31.02;14.60;;;;;;;-0.70;63.08;98168.84;6275785;22;20023;-80
2022/03/27 04:28:59;;;;;;;20.88;11.85;;;;;;;-0.62;62.64;98169.28;6277087;22;20466;-79
2022/03/27 04:31:25;;;;;;;22.00;11.90;;;;;;;-0.52;62.76;98165.25;6275335;22;20019;-79
2022/03/27 04:33:51;;;;;;;24.80;11.98;;;;;;;-0.39;62.37;98182.03;6247514;22;20467;-82
2022/03/27 04:36:17;;;;;;;24.58;11.82;;;;;;;-0.31;61.87;98171.09;6247801;22;20023;-82
2022/03/27 04:38:43;;;;;;;24.88;10.77;;;;;;;-0.41;61.02;98170.78;6273880;22;20351;-80
2022/03/27 04:41:09;;;;;;;23.23;11.25;;;;;;;-0.29;62.02;98162.22;6273433;22;20414;-80
2022/03/27 04:43:34;;;;;;;25.38;10.73;;;;;;;0.01;60.98;98169.34;6275675;22;20012;-80
2022/03/27 04:46:01;;;;;;;20.15;9.85;;;;;;;0.09;60.36;98161.84;6274905;22;20473;-81
2022/03/27 04:48:27;;;;;;;19.15;11.20;;;;;;;0.34;59.88;98149.94;6197411;22;20474;-82
2022/03/27 04:50:53;;;;;;;19.38;10.70;;;;;;;0.29;59.40;98157.25;6223094;22;20020;-80
2022/03/27 04:53:19;;;;;;;21.75;11.00;;;;;;;0.38;59.69;98162.00;6275368;22;20022;-80
2022/03/27 04:55:46;;;;;;;22.85;11.15;;;;;;;0.46;59.34;98149.25;6222865;22;20016;-81
2022/03/27 04:58:12;;;;;;;19.42;9.05;;;;;;;0.33;59.33;98148.25;6248232;22;20043;-80
2022/03/27 05:00:38;;;;;;;18.20;9.55;;;;;;;0.47;59.08;98140.41;6248398;22;20023;-81
2022/03/27 05:03:03;;;;;;;20.45;11.63;;;;;;;0.74;59.02;98148.47;6222054;22;20394;-80
2022/03/27 05:05:30;;;;;;;18.48;11.10;;;;;;;1.07;58.69;98140.34;6248864;22;20019;-80
2022/03/27 05:07:58;;;;;;;19.85;10.18;;;;;;;1.29;57.15;98144.31;6275370;22;20026;-80
2022/03/27 05:10:24;;;;;;;26.77;10.88;;;;;;;1.18;56.71;98143.16;6249577;22;20015;-81
2022/03/27 05:12:50;;;;;;;20.88;11.70;;;;;;;1.13;57.85;98152.25;6276513;22;20022;-82
2022/03/27 05:15:17;;;;;;;17.92;10.02;;;;;;;1.27;56.59;98141.75;6223217;22;20022;-81
2022/03/27 05:17:51;;;;;;;20.45;11.57;;;;;;;1.27;56.54;98143.53;6223357;22;20348;-79
2022/03/27 05:20:18;;;;;;;16.67;10.93;;;;;;;1.59;56.68;98129.22;6249064;22;20015;-81
2022/03/27 05:22:43;;;;;;;23.98;11.02;;;;;;;1.69;55.78;98119.81;6186046;23;20016;-80
2022/03/27 05:25:11;;;;;;;19.33;11.52;;;;;;;1.80;56.59;98099.81;6161285;23;20403;-78
2022/03/27 05:27:53;;;;;;;18.38;10.48;;;;;;;2.16;55.39;98129.06;6185628;23;20016;-79
2022/03/27 05:30:24;;;;;;;19.33;11.18;;;;;;;2.13;55.10;98120.50;6161428;23;20082;-79
2022/03/27 05:32:53;;;;;;;22.80;11.90;;;;;;;2.56;55.30;98118.53;6186476;23;20017;-83
2022/03/27 05:35:21;;;;;;;24.85;13.13;;;;;;;2.75;53.58;98099.66;6211555;23;20480;-80
2022/03/27 05:37:47;;;;;;;21.23;11.20;;;;;;;2.80;52.85;98104.63;6211444;23;20174;-80
2022/03/27 05:40:17;;;;;;;22.20;12.65;;;;;;;2.86;52.91;98098.94;6136824;23;20377;-82
2022/03/27 05:42:43;;;;;;;;;;;;;;;3.01;52.53;98089.97;6174304;23;20024;-82
2022/03/27 05:45:09;;;;;;;26.35;12.13;;;;;;;3.15;52.24;98084.53;6191295;23;19925;-80
2022/03/27 05:47:41;;;;;;;26.13;12.43;;;;;;;3.25;52.28;98078.63;6241679;23;20019;-80
2022/03/27 05:50:08;;;;;;;26.40;14.23;;;;;;;3.32;51.82;98093.94;6216622;23;20085;-80
2022/03/27 05:52:34;;;;;;;24.05;12.93;;;;;;;3.26;51.47;98096.16;6168668;22;20012;-80
2022/03/27 05:55:00;;;;;;;21.70;11.27;;;;;;;3.43;51.95;98093.19;6274775;22;20467;-81
2022/03/27 05:57:28;;;;;;;19.20;12.20;;;;;;;3.68;51.72;98107.28;6273725;22;20023;-80
2022/03/27 05:59:54;;;;;;;18.83;10.68;;;;;;;3.84;50.80;98105.22;6247462;22;20024;-79
2022/03/27 06:02:20;;;;;;;21.15;12.55;;;;;;;3.80;51.17;98123.09;6275335;22;20053;-83
2022/03/27 06:04:46;;;;;;;26.92;12.45;;;;;;;4.02;50.43;98101.22;6222566;22;20571;-81
2022/03/27 06:07:12;;;;;;;23.52;12.57;;;;;;;4.20;49.81;98092.91;6222775;22;20758;-80
2022/03/27 06:09:39;;;;;;;20.25;12.90;;;;;;;4.20;49.89;98104.31;6273774;22;20019;-79
2022/03/27 06:12:05;;;;;;;23.40;12.65;;;;;;;4.23;49.75;98096.16;6273664;22;20016;-82
2022/03/27 06:14:31;;;;;;;21.27;12.07;;;;;;;4.29;49.96;98100.16;6247647;22;20054;-80
2022/03/27 06:16:58;;;;;;;21.10;11.90;;;;;;;4.29;49.97;98093.06;6281044;22;20019;-80
2022/03/27 06:19:24;;;;;;;26.10;12.40;;;;;;;4.29;49.10;98079.84;6282881;22;20387;-80
2022/03/27 06:21:50;;;;;;;24.85;14.70;;;;;;;4.38;50.01;98070.38;6275204;22;20101;-79
2022/03/27 06:24:16;;;;;;;31.05;13.20;;;;;;;4.49;49.22;98074.88;6273173;22;20443;-81
2022/03/27 06:26:42;;;;;;;25.13;14.98;;;;;;;4.56;49.44;98074.28;6247587;22;20018;-81
2022/03/27 06:29:14;;;;;;;24.20;14.23;;;;;;;4.69;49.40;98057.47;6275590;22;20024;-79
2022/03/27 06:31:40;;;;;;;25.90;13.70;;;;;;;4.79;49.28;98054.00;6248241;22;20049;-80
2022/03/27 06:34:06;;;;;;;21.27;13.07;;;;;;;5.00;49.38;98051.50;6247609;22;20019;-80
2022/03/27 06:36:34;;;;;;;24.27;12.43;;;;;;;4.73;48.78;98043.88;6272996;22;20062;-81
2022/03/27 06:39:01;;;;;;;28.25;12.68;;;;;;;4.96;49.25;98050.03;6227780;22;20106;-81
2022/03/27 06:41:27;;;;;;;22.50;12.02;;;;;;;5.00;48.40;98048.84;6281371;22;20031;-80
2022/03/27 06:43:53;;;;;;;23.92;12.73;;;;;;;4.80;49.05;98042.44;6281433;22;20090;-82
2022/03/27 06:46:20;;;;;;;21.05;11.40;;;;;;;4.95;48.91;98040.41;6274765;22;20019;-80
2022/03/27 06:48:47;;;;;;;19.20;12.43;;;;;;;5.26;48.75;98043.28;6274985;22;20020;-77
2022/03/27 06:51:14;;;;;;;17.48;10.65;;;;;;;5.51;48.33;98040.38;6224067;22;20015;-84
2022/03/27 06:53:41;;;;;;;21.90;10.70;;;;;;;5.39;47.31;98046.66;6274171;22;20016;-83
2022/03/27 06:56:07;;;;;;;17.98;9.68;;;;;;;5.06;47.37;98050.16;6274828;22;20065;-80
2022/03/27 06:58:33;;;;;;;19.67;11.77;;;;;;;4.85;48.21;98039.41;6300386;22;20145;-78
2022/03/27 07:03:44;;;;;;;21.65;12.88;;;;;;;4.93;48.99;98039.69;6276160;22;20043;-80
2022/03/27 07:06:10;;;;;;;27.10;12.85;;;;;;;5.16;48.36;98029.94;6275779;22;20015;-79
2022/03/27 07:08:37;;;;;;;29.13;12.80;;;;;;;5.24;48.31;98016.09;6274433;22;20020;-79
2022/03/27 07:11:03;;;;;;;26.70;13.82;;;;;;;5.39;48.50;98019.34;6276334;22;20023;-80
2022/03/27 07:13:34;;;;;;;23.52;13.27;;;;;;;5.63;47.46;98025.28;6249402;22;20016;-82
2022/03/27 07:16:00;;;;;;;25.35;12.82;;;;;;;5.70;47.12;98009.75;6275773;22;20103;-78
2022/03/27 07:18:26;;;;;;;19.13;12.20;;;;;;;5.88;47.40;97994.97;6274418;22;20136;-80
2022/03/27 07:20:52;;;;;;;24.27;10.23;;;;;;;5.81;46.61;97977.88;6247985;22;20039;-80
2022/03/27 07:23:20;;;;;;;15.57;9.80;;;;;;;5.66;46.30;97992.41;6248027;22;20023;-81
2022/03/27 07:25:47;;;;;;;19.45;10.40;;;;;;;5.50;47.10;97990.16;6248069;22;20016;-79
2022/03/27 07:28:14;;;;;;;19.33;10.55;;;;;;;5.58;46.88;97979.78;6250205;22;20504;-80
2022/03/27 07:30:42;;;;;;;21.65;11.70;;;;;;;5.97;46.75;97973.00;6276062;22;20443;-80
2022/03/27 07:33:08;;;;;;;18.38;11.50;;;;;;;5.88;46.25;97968.47;6275614;22;20016;-80
2022/03/27 07:35:34;;;;;;;17.90;11.02;;;;;;;5.78;46.18;97964.88;6276651;22;20020;-80
2022/03/27 07:38:02;;;;;;;18.70;10.27;;;;;;;5.70;46.48;97969.97;6275719;22;20115;-79
2022/03/27 07:40:28;;;;;;;17.77;10.88;;;;;;;5.53;46.98;97969.53;6275694;22;20011;-81
2022/03/27 07:42:55;;;;;;;18.60;11.30;;;;;;;5.63;47.27;97976.75;6250109;22;20031;-82
2022/03/27 07:45:24;;;;;;;18.73;11.68;;;;;;;5.82;47.08;97958.34;6250340;22;20015;-83
2022/03/27 07:47:51;;;;;;;18.58;11.00;;;;;;;5.98;46.97;97945.53;6275543;22;20045;-79
2022/03/27 07:50:19;;;;;;;17.95;10.48;;;;;;;6.39;45.79;97951.81;6223650;22;20328;-80
2022/03/27 07:52:46;;;;;;;21.65;11.18;;;;;;;6.49;45.39;97958.00;6275612;22;20020;-81
2022/03/27 07:55:14;;;;;;;18.08;11.10;;;;;;;6.69;45.23;97958.94;6249397;22;20019;-80
2022/03/27 07:57:41;;;;;;;28.92;11.02;;;;;;;6.90;45.10;97950.94;6275050;22;20452;-84
2022/03/27 08:00:10;;;;;;;16.65;10.70;;;;;;;7.11;44.94;97947.38;6224873;22;20038;-80
2022/03/27 08:02:40;;;;;;;21.10;11.20;;;;;;;6.92;44.26;97949.00;6275940;22;20047;-79
2022/03/27 08:05:07;;;;;;;16.80;11.02;;;;;;;7.03;44.58;97948.06;6275476;22;20027;-79
2022/03/27 08:07:33;;;;;;;20.63;11.80;;;;;;;7.01;44.20;97952.69;6277166;22;20026;-80
2022/03/27 08:09:59;;;;;;;17.20;10.70;;;;;;;7.02;44.37;97939.25;6277306;22;20027;-80
2022/03/27 08:12:27;;;;;;;20.05;9.73;;;;;;;7.26;43.43;97946.03;6250309;22;20012;-80
2022/03/27 08:14:53;;;;;;;22.45;11.07;;;;;;;7.38;44.22;97944.94;6250087;22;20447;-81
2022/03/27 08:17:20;;;;;;;21.13;11.02;;;;;;;7.69;43.21;97932.38;6224310;22;20023;-79
2022/03/27 08:19:49;;;;;;;20.15;10.10;;;;;;;7.13;43.67;97934.81;6275161;22;20047;-81
2022/03/27 08:22:15;;;;;;;15.43;10.55;;;;;;;7.52;43.94;97936.59;6274889;22;20051;-81
2022/03/27 08:24:41;;;;;;;16.05;10.90;;;;;;;7.61;42.84;97928.75;6277103;22;20019;-81
2022/03/27 08:27:08;;;;;;;17.50;10.82;;;;;;;7.70;43.27;97934.06;6250384;22;20015;-79
2022/03/27 08:29:37;;;;;;;15.05;10.35;;;;;;;8.01;42.97;97925.94;6275358;22;20023;-80
2022/03/27 08:32:06;;;;;;;20.27;11.43;;;;;;;7.81;43.43;97914.47;6277430;22;20023;-81
2022/03/27 08:34:34;;;;;;;18.60;10.40;;;;;;;8.06;42.39;97925.53;6249731;22;20023;-80
2022/03/27 08:37:15;;;;;;;24.10;10.60;;;;;;;8.23;42.74;97919.47;6275956;22;20026;-90
2022/03/27 08:39:45;;;;;;;17.65;10.75;;;;;;;8.45;41.59;97903.19;6248078;22;20098;-83
2022/03/27 08:42:13;;;;;;;18.67;10.00;;;;;;;8.59;41.73;97909.06;6250850;22;20111;-82
2022/03/27 08:44:39;;;;;;;17.08;10.93;;;;;;;8.65;42.37;97903.13;6277552;22;20094;-82
2022/03/27 08:47:19;;;;;;;17.90;9.90;;;;;;;8.65;41.73;97897.78;6278503;22;20347;-81
2022/03/27 08:49:53;;;;;;;17.67;10.30;;;;;;;9.07;41.07;97886.69;6279401;22;20402;-83
2022/03/27 08:52:23;;;;;;;13.57;9.00;;;;;;;8.99;40.89;97898.94;6252638;22;20023;-83
2022/03/27 08:55:03;;;;;;;18.27;9.88;;;;;;;9.18;40.08;97894.47;6276020;22;20020;-82
2022/03/27 08:57:59;;;;;;;21.20;10.75;;;;;;;9.13;40.31;97878.06;6250803;22;20045;-82
2022/03/27 09:00:29;;;;;;;13.98;9.38;;;;;;;8.81;41.09;97883.88;6253180;22;20019;-81
2022/03/27 09:02:56;;;;;;;18.50;10.50;;;;;;;8.91;41.02;97864.19;6275816;22;20352;-82
2022/03/27 09:05:23;;;;;;;15.57;9.50;;;;;;;8.67;41.08;97859.38;6250029;22;20019;-82
2022/03/27 09:07:50;;;;;;;14.10;9.63;;;;;;;8.45;41.19;97860.59;6276287;22;20329;-83
2022/03/27 09:10:17;;;;;;;16.98;10.00;;;;;;;8.58;41.42;97849.63;6249862;22;20443;-81
2022/03/27 09:12:44;;;;;;;18.48;9.93;;;;;;;8.61;41.86;97859.13;6275790;22;20098;-80
2022/03/27 09:15:11;;;;;;;18.00;9.82;;;;;;;8.67;41.42;97837.22;6250063;22;20016;-81
2022/03/27 09:18:08;;;;;;;20.88;9.82;;;;;;;8.64;41.51;97827.69;6301235;22;20026;-81
2022/03/27 09:20:37;;;;;;;16.20;9.70;;;;;;;8.74;41.42;97843.66;6275075;22;20102;-82
2022/03/27 09:23:24;;;;;;;22.02;9.63;;;;;;;8.43;41.33;97825.28;6274930;22;20051;-81
2022/03/27 09:25:54;;;;;;;20.63;10.20;;;;;;;7.84;42.60;97828.22;6249922;22;20011;-78
2022/03/27 09:28:32;;;;;;;14.18;8.20;;;;;;;7.42;43.50;97826.72;6275304;22;20027;-78
2022/03/27 09:31:19;;;;;;;20.65;10.15;;;;;;;7.31;44.17;97824.19;6275819;22;20015;-80
2022/03/27 09:33:47;;;;;;;17.70;9.48;;;;;;;7.19;44.23;97812.03;6275370;22;20011;-78
2022/03/27 09:36:17;;;;;;;17.83;9.43;;;;;;;7.22;44.77;97817.03;6276650;22;20074;-81
2022/03/27 09:39:07;;;;;;;15.40;8.88;;;;;;;7.38;44.36;97824.50;6250330;22;20023;-81
2022/03/27 09:41:41;;;;;;;17.58;9.43;;;;;;;7.23;44.47;97808.13;6275340;22;20028;-83
2022/03/27 09:44:19;;;;;;;20.08;8.82;;;;;;;7.15;44.78;97815.94;6277261;22;20023;-81
2022/03/27 09:47:02;;;;;;;20.60;10.02;;;;;;;7.14;45.60;97808.94;6302089;22;20019;-82
2022/03/27 09:49:32;;;;;;;23.80;9.80;;;;;;;7.07;45.31;97798.03;6203140;22;20019;-83
2022/03/27 09:52:04;;;;;;;17.55;9.07;;;;;;;7.14;45.79;97795.66;6226153;22;20051;-83
2022/03/27 09:54:53;;;;;;;18.33;8.88;;;;;;;7.23;45.55;97797.50;6301751;22;20023;-83
2022/03/27 09:57:22;;;;;;;16.45;9.70;;;;;;;7.23;45.09;97803.63;6252246;22;20019;-81
2022/03/27 09:59:49;;;;;;;14.20;7.80;;;;;;;7.20;45.77;97819.84;6250763;22;20019;-82
2022/03/27 10:02:35;;;;;;;18.80;7.38;;;;;;;6.93;46.03;97801.94;6252208;22;20410;-81
2022/03/27 10:05:06;;;;;;;14.50;8.13;;;;;;;7.06;45.90;97799.84;6252002;22;20019;-82
2022/03/27 10:07:44;;;;;;;15.20;8.75;;;;;;;7.23;45.53;97790.34;6228391;22;20498;-81
2022/03/27 10:10:16;;;;;;;17.55;9.45;;;;;;;7.46;45.38;97788.25;6250985;22;20451;-82
2022/03/27 10:12:44;;;;;;;11.63;7.70;;;;;;;7.68;44.44;97792.41;6275714;22;20019;-83
2022/03/27 10:15:12;;;;;;;16.85;8.75;;;;;;;7.71;45.43;97783.28;6275125;22;20347;-83
2022/03/27 10:17:40;;;;;;;15.20;8.60;;;;;;;7.88;44.54;97790.53;6249525;22;20020;-83
2022/03/27 10:20:08;;;;;;;18.67;9.52;;;;;;;7.98;44.13;97793.19;6249687;22;20031;-81
2022/03/27 10:22:43;;;;;;;13.27;8.10;;;;;;;8.04;44.28;97782.78;6300525;22;20328;-82
2022/03/27 10:25:11;;;;;;;16.30;8.60;;;;;;;8.16;43.86;97787.94;6249766;22;20051;-82
2022/03/27 10:27:39;;;;;;;19.83;8.48;;;;;;;8.27;43.12;97777.09;6249590;22;20026;-83
2022/03/27 10:30:08;;;;;;;17.75;8.23;;;;;;;8.27;43.57;97777.09;6224413;22;20020;-81
2022/03/27 10:32:35;;;;;;;11.75;6.93;;;;;;;8.20;42.95;97787.53;6224108;22;20039;-81
2022/03/27 10:35:21;;;;;;;15.70;7.47;;;;;;;8.31;43.24;97765.16;6275011;22;20116;-82
2022/03/27 10:38:16;;;;;;;18.58;8.77;;;;;;;8.25;43.33;97760.47;6277093;22;20023;-82
2022/03/27 10:40:46;;;;;;;17.83;10.88;;;;;;;8.29;43.77;97753.84;6274892;22;20463;-82
2022/03/27 10:43:31;;;;;;;13.43;8.27;;;;;;;8.31;43.10;97745.69;6274718;22;20019;-80
2022/03/27 10:46:22;;;;;;;17.20;8.02;;;;;;;8.47;42.97;97746.78;6279292;22;20020;-80
2022/03/27 10:48:50;;;;;;;17.17;7.97;;;;;;;8.33;43.32;97733.94;6274947;22;20094;-81
2022/03/27 10:51:25;;;;;;;19.10;7.75;;;;;;;8.36;42.92;97744.28;6248993;22;20019;-82
2022/03/27 10:54:03;;;;;;;15.43;8.40;;;;;;;8.30;43.16;97739.53;6248936;22;20448;-82
2022/03/27 10:56:41;;;;;;;16.45;8.30;;;;;;;8.39;43.12;97735.22;6276583;22;20015;-84
2022/03/27 10:59:27;;;;;;;17.48;7.20;;;;;;;8.51;42.74;97721.53;6276253;22;20020;-82
2022/03/27 11:01:55;;;;;;;16.98;7.57;;;;;;;8.52;42.10;97717.88;6250490;22;20405;-83
2022/03/27 11:04:44;;;;;;;21.40;7.97;;;;;;;8.60;42.61;97710.97;6276608;22;20015;-81
2022/03/27 11:07:16;;;;;;;9.32;6.82;;;;;;;8.90;42.11;97709.75;6277129;22;20045;-83
2022/03/27 11:09:46;;;;;;;12.57;7.13;;;;;;;9.20;41.10;97705.88;6302509;22;20015;-82
2022/03/27 11:12:24;;;;;;;11.90;6.28;;;;;;;9.47;40.29;97697.72;6278180;22;20456;-83
2022/03/27 11:14:53;;;;;;;11.85;7.20;;;;;;;9.52;40.55;97691.94;6277088;22;20118;-83
2022/03/27 11:17:52;;;;;;;16.30;6.88;;;;;;;9.41;40.62;97702.88;6276974;22;20452;-84
2022/03/27 11:20:22;;;;;;;10.80;6.85;;;;;;;9.28;41.08;97711.25;6276739;22;20459;-85
2022/03/27 11:22:59;;;;;;;16.23;7.53;;;;;;;8.96;41.83;97691.34;6276601;22;20019;-83
2022/03/27 11:25:37;;;;;;;15.20;7.32;;;;;;;8.64;42.12;97688.38;6276881;22;20023;-83
2022/03/27 11:28:12;;;;;;;16.48;7.20;;;;;;;8.60;42.32;97697.66;6276874;22;20016;-82
2022/03/27 11:30:40;;;;;;;12.98;7.00;;;;;;;8.51;42.47;97692.25;6276686;22;20095;-84
2022/03/27 11:33:23;;;;;;;13.63;7.30;;;;;;;8.35;42.87;97694.69;6278612;22;20325;-82
2022/03/27 11:36:02;;;;;;;14.18;6.53;;;;;;;8.26;42.73;97684.94;6252060;22;20032;-84